FACT METAR and TAF | Updated Today

FACT METAR

Cape Town International Airport

Observation time: 15 min. ago

FACT 080600Z 16007KT CAVOK 21/13 Q1017 NOSIG

Need help? Read our tutorial on how to read METARs or read the parsed version below.

Cape Town International Airport (FACT) METAR

  • Weather conditions on Wed, 08 Dec 2021 06:00:00 +0000 (15 min. ago):
  • Present conditions: Dry
  • Clouds: Clear skies
  • Visibility: Greater than 10 km
  • Wind: 160 degrees at 7 knots
  • Temperature: 21 celsius
  • Dew point: 13 celsius
  • Pressure: 1017 millibars
  • Remarks: None


Useful to know...

FACT TAF

Cape Town International Airport

TAF FACT 080400Z 0806/0912 18010KT CAVOK TX26/0812Z TN16/0903Z BECMG 0808/0810 17020KT BECMG 0814/0816 19010KT
Observation time: 2:15 hr. ago
Need help? Read our tutorial on how to read TAFs or read the parsed version below.

Parsed version of TAF for Cape Town International Airport (FACT)

  • From 08 December at 06:00 UTC, to day 09 of the month at 12:00 UTC
  • Visibility: Greater than 10 km
  • Wind: 180 degrees at 10
  • Expected to arise soon, from 08 December at 08:00 UTC, to day 08 of the month at 10:00 UTC
  • Wind: 170 degrees at 20
  • Expected to arise soon, from 08 December at 14:00 UTC, to day 08 of the month at 16:00 UTC
  • Wind: 190 degrees at 10

Airports near FACT